Weather at Melton Airport

Public forecast

Using degrees Celsius for public forecast. Weather courtesy of forecast.io.

Closest aviation weather report (METAR) to Melton Airport

Closest report is Melbourne International Airport, 13.6 nm (25.1 km) ESE.

2024/06/18 13:00 (retrieved 15 minutes ago)

YMML 181300Z 01006KT 9999 FEW040 02/01 Q1018

Closest aviation forecast (TAF) to Melton Airport

Closest forecast is Melbourne International Airport, 13.6 nm (25.1 km) ESE.

2024/06/18 12:51 (retrieved 24 minutes ago)

TAF YMML 181106Z 1812/1918 02008KT 9999 FEW035 FM191500 36012KT 9999 BKN040